createdAt,value
2018-11-14T00:00:17.441Z,83.60
2018-11-14T00:02:45.960Z,81.10
2018-11-14T00:05:14.504Z,80.80
2018-11-14T00:07:42.966Z,80.50
2018-11-14T00:10:11.835Z,80.50
2018-11-14T00:12:40.305Z,81.70
2018-11-14T00:15:11.731Z,80.50
2018-11-14T00:17:40.428Z,80.40
2018-11-14T00:20:10.247Z,80.30
2018-11-14T00:22:39.503Z,80.50
2018-11-14T00:25:08.435Z,80.30
2018-11-14T00:27:37.348Z,80.00
2018-11-14T00:30:09.262Z,79.90
2018-11-14T00:32:37.972Z,79.90
2018-11-14T00:35:07.009Z,79.60
2018-11-14T00:37:35.670Z,79.70
2018-11-14T00:40:05.320Z,79.80
2018-11-14T00:42:34.025Z,79.60
2018-11-14T00:45:02.791Z,79.40
2018-11-14T00:47:31.497Z,79.10
2018-11-14T00:50:00.033Z,79.20
2018-11-14T00:52:28.678Z,79.10
2018-11-14T00:54:57.223Z,79.20
2018-11-14T00:57:25.861Z,79.40
2018-11-14T00:59:54.399Z,79.30
2018-11-14T01:02:23.032Z,79.50
2018-11-14T01:04:51.762Z,79.50
2018-11-14T01:07:20.749Z,79.30
2018-11-14T01:09:49.566Z,79.00
2018-11-14T01:12:18.155Z,78.90
2018-11-14T01:14:46.681Z,79.10
2018-11-14T01:17:15.486Z,79.00
2018-11-14T01:19:44.122Z,78.90
2018-11-14T01:22:12.687Z,79.00
2018-11-14T01:24:41.371Z,79.20
2018-11-14T01:27:09.923Z,79.30
2018-11-14T01:29:38.588Z,79.30
2018-11-14T01:32:07.190Z,79.40
2018-11-14T01:34:35.936Z,79.50
2018-11-14T01:37:04.654Z,79.60
2018-11-14T01:39:33.367Z,79.60
2018-11-14T01:42:02.195Z,79.70
2018-11-14T01:44:30.776Z,79.70
2018-11-14T01:46:59.399Z,80.20
2018-11-14T01:49:27.944Z,80.70
2018-11-14T01:51:56.939Z,82.00
2018-11-14T01:54:25.898Z,82.10
2018-11-14T01:56:54.776Z,82.10
2018-11-14T01:59:23.428Z,82.40
2018-11-14T02:01:51.991Z,82.50
2018-11-14T02:04:20.862Z,82.70
2018-11-14T02:06:49.480Z,82.70
2018-11-14T02:09:18.434Z,82.70
2018-11-14T02:11:47.179Z,82.80
2018-11-14T02:14:15.716Z,82.70
2018-11-14T02:16:44.320Z,82.70
2018-11-14T02:19:12.985Z,82.50
2018-11-14T02:21:41.597Z,82.50
2018-11-14T02:24:10.436Z,82.40
2018-11-14T02:26:39.262Z,82.50
2018-11-14T02:29:08.187Z,82.60
2018-11-14T02:31:36.794Z,82.90
2018-11-14T02:34:06.482Z,83.10
2018-11-14T02:36:35.097Z,83.40
2018-11-14T02:39:04.951Z,83.80
2018-11-14T02:41:33.573Z,84.50
2018-11-14T02:44:02.257Z,85.10
2018-11-14T02:46:31.042Z,86.40
2018-11-14T02:48:59.654Z,85.80
2018-11-14T02:51:29.582Z,85.90
2018-11-14T02:53:58.347Z,85.90
2018-11-14T02:56:27.340Z,86.10
2018-11-14T02:58:55.928Z,86.40
2018-11-14T03:01:24.498Z,86.90
2018-11-14T03:03:53.046Z,87.10
2018-11-14T03:06:21.614Z,87.00
2018-11-14T03:08:50.387Z,87.10
2018-11-14T03:11:19.239Z,86.80
2018-11-14T03:13:47.883Z,86.80
2018-11-14T03:16:16.455Z,87.10
2018-11-14T03:18:44.987Z,87.10
2018-11-14T03:21:13.787Z,86.70
2018-11-14T03:23:42.712Z,86.90
2018-11-14T03:26:11.359Z,86.60
2018-11-14T03:28:39.871Z,87.20
2018-11-14T03:31:08.472Z,87.10
2018-11-14T03:33:37.127Z,87.30
2018-11-14T03:36:11.436Z,87.00
2018-11-14T03:38:40.069Z,86.70
2018-11-14T03:41:08.748Z,86.90
2018-11-14T03:43:37.335Z,87.30
2018-11-14T03:46:05.987Z,87.30
2018-11-14T03:48:34.663Z,87.30
2018-11-14T03:51:03.268Z,87.20
2018-11-14T03:53:31.905Z,87.20
2018-11-14T03:56:00.839Z,87.40
2018-11-14T03:58:29.712Z,87.40
2018-11-14T04:00:58.176Z,87.40
2018-11-14T04:03:26.784Z,87.40
2018-11-14T04:05:55.367Z,87.30
2018-11-14T04:08:23.863Z,87.10
2018-11-14T04:10:52.431Z,86.90
2018-11-14T04:13:21.107Z,87.10
2018-11-14T04:15:49.627Z,87.00
2018-11-14T04:18:18.243Z,87.30
2018-11-14T04:20:47.008Z,87.40
2018-11-14T04:23:15.565Z,87.50
2018-11-14T04:25:44.252Z,87.50
2018-11-14T04:28:12.932Z,87.60
2018-11-14T04:30:41.524Z,87.50
2018-11-14T04:33:10.110Z,87.80
2018-11-14T04:35:38.915Z,87.80
2018-11-14T04:38:07.503Z,88.00
2018-11-14T04:40:36.120Z,88.00
2018-11-14T04:43:05.007Z,87.80
2018-11-14T04:45:33.653Z,88.00
2018-11-14T04:48:02.623Z,88.00
2018-11-14T04:50:31.463Z,88.00
2018-11-14T04:52:59.975Z,88.00
2018-11-14T04:55:28.587Z,87.90
2018-11-14T04:57:57.360Z,88.00
2018-11-14T05:00:26.671Z,88.30
2018-11-14T05:02:55.296Z,88.70
2018-11-14T05:05:24.671Z,88.90
2018-11-14T05:07:53.407Z,89.60
2018-11-14T05:10:23.475Z,89.60
2018-11-14T05:12:52.552Z,89.70
2018-11-14T05:15:22.467Z,90.00
2018-11-14T05:17:51.711Z,89.00
2018-11-14T05:20:21.132Z,88.80
2018-11-14T05:22:50.063Z,88.80
2018-11-14T05:25:19.121Z,89.20
2018-11-14T05:27:47.908Z,89.40
2018-11-14T05:30:18.014Z,89.40
2018-11-14T05:32:47.870Z,89.40
2018-11-14T05:35:17.151Z,89.40
2018-11-14T05:37:46.010Z,89.40
2018-11-14T05:40:15.897Z,89.30
2018-11-14T05:42:45.322Z,89.40
2018-11-14T05:45:17.096Z,89.40
2018-11-14T05:47:45.682Z,89.30
2018-11-14T05:50:15.915Z,89.30
2018-11-14T05:52:44.739Z,89.50
2018-11-14T05:55:14.651Z,89.40
2018-11-14T05:57:43.252Z,89.40
2018-11-14T06:00:17.731Z,89.40
2018-11-14T06:02:47.048Z,89.20
2018-11-14T06:05:15.600Z,89.10
2018-11-14T06:07:44.178Z,89.00
2018-11-14T06:10:13.475Z,88.90
2018-11-14T06:12:42.797Z,88.90
2018-11-14T06:15:14.107Z,89.00
2018-11-14T06:17:43.911Z,88.60
2018-11-14T06:20:20.316Z,89.00
2018-11-14T06:22:49.915Z,89.10
2018-11-14T06:25:24.686Z,89.00
2018-11-14T06:27:54.547Z,89.00
2018-11-14T06:30:23.858Z,88.90
2018-11-14T06:32:53.231Z,88.90
2018-11-14T06:35:22.152Z,88.90
2018-11-14T06:37:51.517Z,89.00
2018-11-14T06:40:20.480Z,88.80
2018-11-14T06:42:49.193Z,89.40
2018-11-14T06:45:24.160Z,89.70
2018-11-14T06:47:55.093Z,89.90
2018-11-14T06:50:23.899Z,89.70
2018-11-14T06:52:53.972Z,89.90
2018-11-14T06:55:22.548Z,90.00
2018-11-14T06:57:51.268Z,90.30
2018-11-14T07:00:26.156Z,89.40
2018-11-14T07:02:55.585Z,88.80
2018-11-14T07:05:24.575Z,88.90
2018-11-14T07:07:53.157Z,88.90
2018-11-14T07:10:24.066Z,88.90
2018-11-14T07:12:53.047Z,89.20
2018-11-14T07:15:23.015Z,89.50
2018-11-14T07:17:52.679Z,89.10
2018-11-14T07:20:25.652Z,89.10
2018-11-14T07:22:54.332Z,88.80
2018-11-14T07:25:23.050Z,89.80
2018-11-14T07:27:51.710Z,89.10
2018-11-14T07:30:25.363Z,88.70
2018-11-14T07:33:01.744Z,88.80
2018-11-14T07:35:30.491Z,89.00
2018-11-14T07:38:43.323Z,88.90
2018-11-14T07:41:13.492Z,89.00
2018-11-14T07:43:42.764Z,89.70
2018-11-14T07:46:12.061Z,89.00
2018-11-14T07:48:41.007Z,89.00
2018-11-14T07:51:09.937Z,89.00
2018-11-14T07:53:38.648Z,89.00
2018-11-14T07:56:07.800Z,88.80
2018-11-14T07:58:37.005Z,88.70
2018-11-14T08:01:06.193Z,88.80
2018-11-14T08:03:34.775Z,89.20
2018-11-14T08:06:03.466Z,89.10
2018-11-14T08:08:32.161Z,89.00
2018-11-14T08:11:01.095Z,88.90
2018-11-14T08:13:30.827Z,89.00
2018-11-14T08:16:00.383Z,89.00
2018-11-14T08:18:29.062Z,88.70
2018-11-14T08:20:58.488Z,88.30
2018-11-14T08:23:27.041Z,88.80
2018-11-14T08:25:55.767Z,88.40
2018-11-14T08:28:24.579Z,88.30
2018-11-14T08:30:53.235Z,88.30
2018-11-14T08:33:22.025Z,88.70
2018-11-14T08:35:50.768Z,87.50
2018-11-14T08:38:19.446Z,86.90
2018-11-14T08:40:48.238Z,86.90
2018-11-14T08:43:17.015Z,86.40
2018-11-14T08:45:45.559Z,86.10
2018-11-14T08:48:14.357Z,85.80
2018-11-14T08:50:42.924Z,85.90
2018-11-14T08:53:11.970Z,85.10
2018-11-14T08:55:40.612Z,84.80
2018-11-14T08:58:10.640Z,84.60
2018-11-14T09:00:39.301Z,84.10
2018-11-14T09:03:09.823Z,83.70
2018-11-14T09:05:38.507Z,83.70
2018-11-14T09:08:07.349Z,83.40
2018-11-14T09:10:36.360Z,83.30
2018-11-14T09:13:05.142Z,83.00
2018-11-14T09:15:33.759Z,82.50
2018-11-14T09:18:02.606Z,82.00
2018-11-14T09:20:31.154Z,81.70
2018-11-14T09:22:59.873Z,80.70
2018-11-14T09:25:30.503Z,80.60
2018-11-14T09:28:00.285Z,79.20
2018-11-14T09:30:29.109Z,78.60
2018-11-14T09:32:57.928Z,78.40
2018-11-14T09:35:27.492Z,78.00
2018-11-14T09:37:57.137Z,78.20
2018-11-14T09:40:27.057Z,77.90
2018-11-14T09:42:55.759Z,77.60
2018-11-14T09:45:25.787Z,77.90
2018-11-14T09:47:54.506Z,77.90
2018-11-14T09:50:25.499Z,78.00
2018-11-14T09:52:55.468Z,78.00
2018-11-14T09:55:24.130Z,77.80
2018-11-14T09:57:52.783Z,77.50
2018-11-14T10:00:35.955Z,77.10
2018-11-14T10:03:11.610Z,76.90
2018-11-14T10:05:40.443Z,77.40
2018-11-14T10:08:09.276Z,77.30
2018-11-14T10:10:38.075Z,77.30
2018-11-14T10:13:07.031Z,77.50
2018-11-14T10:15:35.747Z,77.30
2018-11-14T10:18:04.307Z,76.70
2018-11-14T10:20:33.000Z,76.70
2018-11-14T10:23:01.629Z,76.60
2018-11-14T10:25:30.288Z,76.60
2018-11-14T10:27:59.020Z,76.70
2018-11-14T10:30:28.366Z,76.20
2018-11-14T10:32:56.950Z,75.90
2018-11-14T10:35:25.731Z,76.20
2018-11-14T10:37:54.515Z,75.80
2018-11-14T10:40:25.590Z,75.70
2018-11-14T10:42:54.914Z,75.80
2018-11-14T10:45:24.786Z,75.80
2018-11-14T10:47:53.748Z,72.30
2018-11-14T10:50:24.739Z,71.10
2018-11-14T10:52:53.419Z,70.20
2018-11-14T10:55:22.507Z,69.00
2018-11-14T10:57:51.483Z,68.50
2018-11-14T11:00:27.614Z,68.40
2018-11-14T11:03:02.000Z,67.70
2018-11-14T11:05:36.089Z,66.80
2018-11-14T11:08:10.288Z,66.60
2018-11-14T11:10:44.058Z,66.40
2018-11-14T11:13:18.054Z,65.90
2018-11-14T11:15:51.992Z,65.50
2018-11-14T11:18:24.704Z,65.20
2018-11-14T11:20:54.090Z,64.70
2018-11-14T11:23:23.040Z,65.00
2018-11-14T11:25:51.653Z,65.10
2018-11-14T11:28:20.514Z,64.30
2018-11-14T11:30:49.250Z,64.60
2018-11-14T11:33:17.759Z,63.70
2018-11-14T11:35:46.522Z,63.10
2018-11-14T11:38:15.295Z,63.30
2018-11-14T11:40:43.899Z,63.50
2018-11-14T11:43:12.557Z,63.60
2018-11-14T11:45:41.449Z,63.50
2018-11-14T11:48:10.204Z,61.90
2018-11-14T11:50:39.035Z,61.80
2018-11-14T11:53:07.686Z,61.70
2018-11-14T11:55:36.589Z,61.30
2018-11-14T11:58:05.723Z,62.10
2018-11-14T12:00:34.814Z,61.00
2018-11-14T12:03:03.397Z,61.40
2018-11-14T12:05:32.300Z,61.40
2018-11-14T12:08:00.928Z,61.50
2018-11-14T12:10:29.550Z,61.60
2018-11-14T12:12:58.275Z,61.20
2018-11-14T12:15:27.147Z,61.00
2018-11-14T12:17:56.063Z,61.00
2018-11-14T12:20:24.690Z,61.20
2018-11-14T12:22:53.266Z,61.30
2018-11-14T12:25:21.886Z,61.10
2018-11-14T12:27:50.653Z,60.80
2018-11-14T12:30:19.356Z,59.90
2018-11-14T12:32:48.042Z,60.40
2018-11-14T12:35:17.373Z,60.60
2018-11-14T12:37:45.975Z,60.90
2018-11-14T12:40:15.424Z,60.60
2018-11-14T12:42:50.778Z,59.90
2018-11-14T12:45:19.690Z,59.90
2018-11-14T12:47:48.534Z,59.90
2018-11-14T12:50:17.276Z,60.30
2018-11-14T12:52:46.191Z,60.10
2018-11-14T12:55:16.331Z,60.20
2018-11-14T12:57:45.060Z,60.70
2018-11-14T13:00:15.093Z,59.80
2018-11-14T13:02:43.905Z,60.00
2018-11-14T13:05:13.711Z,60.10
2018-11-14T13:07:42.789Z,59.80
2018-11-14T13:10:14.003Z,59.60
2018-11-14T13:12:43.549Z,60.00
2018-11-14T13:15:13.540Z,59.90
2018-11-14T13:17:43.826Z,60.80
2018-11-14T13:20:15.725Z,61.40
2018-11-14T13:22:44.686Z,61.10
2018-11-14T13:25:14.231Z,60.90
2018-11-14T13:27:44.284Z,60.40
2018-11-14T13:30:15.368Z,60.00
2018-11-14T13:32:44.920Z,60.00
2018-11-14T13:35:14.924Z,59.90
2018-11-14T13:37:44.411Z,59.80
2018-11-14T13:40:13.326Z,59.60
2018-11-14T13:42:42.545Z,59.70
2018-11-14T13:45:12.586Z,59.90
2018-11-14T13:47:41.772Z,59.80
2018-11-14T13:50:14.940Z,60.10
2018-11-14T13:52:44.065Z,61.20
2018-11-14T13:55:14.249Z,61.10
2018-11-14T13:57:44.957Z,61.20
2018-11-14T14:00:15.045Z,61.00
2018-11-14T14:02:44.461Z,60.10
2018-11-14T14:05:15.789Z,60.20
2018-11-14T14:07:44.621Z,59.90
2018-11-14T14:10:14.643Z,60.20
2018-11-14T14:12:44.474Z,60.00
2018-11-14T14:15:15.897Z,60.20
2018-11-14T14:17:45.664Z,60.60
2018-11-14T14:20:15.108Z,60.00
2018-11-14T14:22:44.070Z,60.60
2018-11-14T14:25:15.089Z,60.30
2018-11-14T14:27:44.136Z,60.40
2018-11-14T14:30:16.296Z,60.40
2018-11-14T14:32:45.705Z,60.50
2018-11-14T14:35:15.499Z,60.90
2018-11-14T14:37:44.148Z,60.70
2018-11-14T14:40:17.893Z,60.80
2018-11-14T14:42:46.821Z,61.90
2018-11-14T14:45:17.295Z,61.40
2018-11-14T14:47:46.120Z,61.50
2018-11-14T14:50:15.967Z,62.00
2018-11-14T14:52:45.269Z,62.20
2018-11-14T14:55:17.441Z,62.20
2018-11-14T14:57:46.729Z,63.30
2018-11-14T15:00:18.961Z,63.30
2018-11-14T15:02:47.765Z,63.10
2018-11-14T15:05:16.467Z,63.30
2018-11-14T15:07:45.318Z,63.50
2018-11-14T15:10:15.847Z,63.50
2018-11-14T15:12:44.660Z,63.70
2018-11-14T15:15:13.973Z,64.00
2018-11-14T15:17:42.905Z,64.20
2018-11-14T15:20:14.293Z,64.40
2018-11-14T15:22:43.202Z,65.30
2018-11-14T15:25:13.400Z,65.90
2018-11-14T15:27:43.010Z,66.30
2018-11-14T15:30:15.375Z,66.60
2018-11-14T15:32:44.174Z,68.00
2018-11-14T15:35:13.636Z,67.40
2018-11-14T15:37:42.431Z,68.20
2018-11-14T15:40:13.301Z,68.70
2018-11-14T15:42:42.226Z,69.30
2018-11-14T15:45:13.410Z,70.00
2018-11-14T15:47:42.536Z,70.30
2018-11-14T15:50:16.811Z,70.70
2018-11-14T15:52:46.621Z,71.10
2018-11-14T15:55:16.250Z,71.40
2018-11-14T15:57:45.316Z,71.70
2018-11-14T16:00:32.568Z,72.00
2018-11-14T16:03:02.007Z,72.40
2018-11-14T16:05:32.113Z,72.50
2018-11-14T16:08:02.380Z,73.30
2018-11-14T16:10:31.902Z,72.80
2018-11-14T16:13:00.848Z,73.00
2018-11-14T16:15:34.305Z,73.00
2018-11-14T16:18:03.201Z,73.10
2018-11-14T16:20:31.872Z,73.30
2018-11-14T16:23:00.635Z,73.20
2018-11-14T16:25:29.612Z,73.30
2018-11-14T16:27:59.583Z,73.40
2018-11-14T16:30:35.044Z,73.60
2018-11-14T16:33:06.158Z,73.60
2018-11-14T16:35:35.205Z,73.80
2018-11-14T16:38:04.196Z,74.10
2018-11-14T16:40:34.271Z,74.60
2018-11-14T16:43:04.983Z,74.60
2018-11-14T16:45:34.065Z,74.90
2018-11-14T16:48:03.033Z,76.20
2018-11-14T16:50:32.068Z,76.50
2018-11-14T16:53:00.935Z,76.70
2018-11-14T16:55:30.121Z,76.60
2018-11-14T16:57:59.806Z,76.70
2018-11-14T17:00:29.827Z,76.80
2018-11-14T17:02:59.085Z,77.00
2018-11-14T17:05:28.927Z,77.20
2018-11-14T17:07:57.584Z,77.30
2018-11-14T17:10:26.351Z,77.20
2018-11-14T17:12:56.622Z,77.20
2018-11-14T17:15:26.298Z,78.30
2018-11-14T17:17:55.193Z,77.40
2018-11-14T17:20:24.195Z,77.40
2018-11-14T17:22:54.004Z,77.30
2018-11-14T17:25:23.003Z,77.50
2018-11-14T17:27:51.817Z,77.50
2018-11-14T17:30:22.190Z,77.90
2018-11-14T17:32:51.561Z,77.80
2018-11-14T17:35:20.799Z,77.90
2018-11-14T17:37:50.038Z,77.90
2018-11-14T17:40:22.641Z,78.00
2018-11-14T17:42:52.256Z,78.30
2018-11-14T17:45:23.579Z,78.50
2018-11-14T17:47:52.822Z,78.50
2018-11-14T17:50:25.955Z,79.30
2018-11-14T17:52:55.650Z,79.90
2018-11-14T17:55:25.248Z,79.80
2018-11-14T17:57:54.412Z,79.70
2018-11-14T18:00:24.794Z,79.80
2018-11-14T18:02:53.846Z,79.90
2018-11-14T18:05:24.000Z,80.00
2018-11-14T18:07:53.499Z,80.00
2018-11-14T18:10:24.549Z,80.00
2018-11-14T18:12:54.371Z,80.10
2018-11-14T18:15:23.742Z,80.20
2018-11-14T18:17:53.365Z,80.20
2018-11-14T18:20:24.451Z,80.20
2018-11-14T18:22:53.780Z,80.30
2018-11-14T18:25:22.668Z,80.60
2018-11-14T18:27:51.773Z,80.60
2018-11-14T18:30:22.827Z,80.60
2018-11-14T18:32:52.947Z,80.40
2018-11-14T18:35:22.901Z,80.30
2018-11-14T18:37:52.868Z,80.20
2018-11-14T18:40:25.043Z,80.30
2018-11-14T18:42:54.380Z,80.30
2018-11-14T18:45:25.444Z,80.20
2018-11-14T18:47:55.372Z,80.40
2018-11-14T18:50:25.061Z,80.40
2018-11-14T18:52:54.304Z,80.40
2018-11-14T18:55:24.905Z,80.40
2018-11-14T18:57:55.190Z,80.40
2018-11-14T19:00:26.484Z,80.40
2018-11-14T19:02:55.753Z,80.60
2018-11-14T19:05:25.251Z,80.30
2018-11-14T19:07:54.457Z,80.30
2018-11-14T19:10:24.676Z,80.40
2018-11-14T19:12:53.997Z,80.70
2018-11-14T19:15:26.261Z,80.60
2018-11-14T19:17:55.422Z,80.60
2018-11-14T19:20:25.897Z,80.70
2018-11-14T19:22:55.811Z,80.60
2018-11-14T19:25:26.660Z,80.70
2018-11-14T19:27:55.858Z,80.60
2018-11-14T19:30:26.396Z,80.30
2018-11-14T19:32:56.447Z,80.50
2018-11-14T19:35:26.197Z,80.70
2018-11-14T19:37:56.505Z,80.70
2018-11-14T19:40:26.697Z,80.60
2018-11-14T19:42:57.882Z,80.70
2018-11-14T19:45:28.415Z,80.80
2018-11-14T19:47:57.480Z,80.90
2018-11-14T19:50:26.678Z,80.90
2018-11-14T19:52:55.802Z,81.00
2018-11-14T19:55:26.169Z,81.10
2018-11-14T19:57:56.474Z,81.10
2018-11-14T20:00:27.130Z,81.00
2018-11-14T20:02:56.207Z,81.00
2018-11-14T20:05:25.165Z,80.70
2018-11-14T20:07:54.344Z,80.90
2018-11-14T20:10:24.853Z,81.00
2018-11-14T20:12:54.426Z,81.00
2018-11-14T20:15:24.916Z,81.10
2018-11-14T20:17:54.332Z,81.30
2018-11-14T20:20:24.918Z,81.50
2018-11-14T20:22:53.872Z,81.60
2018-11-14T20:25:22.812Z,81.70
2018-11-14T20:27:51.709Z,82.10
2018-11-14T20:30:25.759Z,82.40
2018-11-14T20:32:55.723Z,82.90
2018-11-14T20:35:25.329Z,83.40
2018-11-14T20:37:54.370Z,83.50
2018-11-14T20:40:23.636Z,83.30
2018-11-14T20:42:53.513Z,83.20
2018-11-14T20:45:25.542Z,83.40
2018-11-14T20:47:54.613Z,82.90
2018-11-14T20:50:24.327Z,82.90
2018-11-14T20:52:58.045Z,83.20
2018-11-14T20:55:27.265Z,83.00
2018-11-14T20:57:56.364Z,83.00
2018-11-14T21:00:31.345Z,83.30
2018-11-14T21:03:00.665Z,83.50
2018-11-14T21:05:30.131Z,83.60
2018-11-14T21:07:59.224Z,83.70
2018-11-14T21:10:29.550Z,83.70
2018-11-14T21:12:58.948Z,83.60
2018-11-14T21:15:29.608Z,83.60
2018-11-14T21:17:59.693Z,83.50
2018-11-14T21:20:28.563Z,83.30
2018-11-14T21:22:57.342Z,84.30
2018-11-14T21:25:26.924Z,83.50
2018-11-14T21:27:56.316Z,83.10
2018-11-14T21:30:26.299Z,83.10
2018-11-14T21:32:55.242Z,83.10
2018-11-14T21:35:26.960Z,83.10
2018-11-14T21:37:57.281Z,83.10
2018-11-14T21:40:26.135Z,83.00
2018-11-14T21:42:55.249Z,83.10
2018-11-14T21:45:25.337Z,83.00
2018-11-14T21:47:59.332Z,83.00
2018-11-14T21:50:28.868Z,83.70
2018-11-14T21:52:57.763Z,82.70
2018-11-14T21:55:26.831Z,82.70
2018-11-14T21:57:55.472Z,82.70
2018-11-14T22:00:29.423Z,82.60
2018-11-14T22:02:58.417Z,82.40
2018-11-14T22:05:27.222Z,82.10
2018-11-14T22:07:56.051Z,83.00
2018-11-14T22:10:25.634Z,82.30
2018-11-14T22:12:54.574Z,82.50
2018-11-14T22:15:24.463Z,82.50
2018-11-14T22:17:53.173Z,82.60
2018-11-14T22:20:23.520Z,82.70
2018-11-14T22:22:52.401Z,82.50
2018-11-14T22:25:22.523Z,82.60
2018-11-14T22:27:51.463Z,82.70
2018-11-14T22:30:22.851Z,82.40
2018-11-14T22:32:51.418Z,82.40
2018-11-14T22:35:21.398Z,82.30
2018-11-14T22:37:50.290Z,82.30
2018-11-14T22:40:20.223Z,82.70
2018-11-14T22:42:49.278Z,82.70
2018-11-14T22:45:20.298Z,82.80
2018-11-14T22:47:49.452Z,83.10
2018-11-14T22:50:19.706Z,82.90
2018-11-14T22:52:48.782Z,83.00
2018-11-14T22:55:18.979Z,83.20
2018-11-14T22:57:48.398Z,83.40
2018-11-14T23:00:24.906Z,83.80
2018-11-14T23:02:54.783Z,83.70
2018-11-14T23:05:23.358Z,83.80
2018-11-14T23:07:53.100Z,84.10
2018-11-14T23:10:22.638Z,84.00
2018-11-14T23:12:51.532Z,84.00
2018-11-14T23:15:21.167Z,84.10
2018-11-14T23:17:49.985Z,84.20
2018-11-14T23:20:19.136Z,84.10
2018-11-14T23:22:48.376Z,84.10
2018-11-14T23:25:17.571Z,84.70
2018-11-14T23:27:47.649Z,84.20
2018-11-14T23:30:17.319Z,84.20
2018-11-14T23:32:47.417Z,84.10
2018-11-14T23:35:22.457Z,84.30
2018-11-14T23:37:52.592Z,84.60
2018-11-14T23:40:21.367Z,84.70
2018-11-14T23:42:50.547Z,85.00
2018-11-14T23:45:20.049Z,85.10
2018-11-14T23:47:49.348Z,85.10
2018-11-14T23:50:22.953Z,85.30
2018-11-14T23:52:52.575Z,85.30
2018-11-14T23:55:21.904Z,85.50
2018-11-14T23:57:50.551Z,85.80
